logo
Search for airport 
image banner adimage banner adimage banner ad
image banner ad

SIYG - Gorduras E Margarinas Especiais - Gme

Located in Fortaleza, Brazil

ICAO - SIYG, IATA -

Data provided by Airmate  

General information

Coordinates: S3°43'9" W38°28'27"
Elevation is 78 feet MSL.
Magnetic variation is -20.720895405° East
View others Airports in Ceará

Operational data

Special qualification required
Current time UTC:
Current local time:
Weather at : SBFZ - Pinto Martins ( 9 km )
METAR: SBFZ 171600Z 16013KT 9999 BKN030 30/21 Q1011
TAF: TAF SBFZ 171439Z 1718/1818 12015KT 9999 FEW030 TN24/1809Z TX30/1817Z BECMG 1723/1801 18005KT TEMPO 1801/1807 4000 RA BKN010 BECMG 1810/1812 14015KT RMK PHI
View NOTAMs / SUP AIP / TFR affecting this airport [VIEW]
Communications frequencies: [VIEW]

Runways:

Airport contact information

Address: Fortaleza Brazil

Satellite view of SIYG